Time;durP1;ratioP1;P1;durP2;ratioP2;P2;SDS_P1;SDS_P2;PMS_P1;PMS_P2;Temp;Humidity;BMP_temperature;BMP_pressure;BME280_temperature;BME280_humidity;BME280_pressure;Samples;Min_cycle;Max_cycle;Signal;HPM_P1;HPM_P2
2023/06/12 00:00:54;;;;;;;6.43;5.83;;;19.20;95.90;;;;;;5030906;28;20500;-70
2023/06/12 00:03:25;;;;;;;5.60;5.20;;;19.10;96.10;;;;;;5029712;28;20409;-71
2023/06/12 00:05:52;;;;;;;6.67;6.07;;;19.00;96.50;;;;;;5030733;28;20845;-71
2023/06/12 00:08:19;;;;;;;6.30;5.63;;;18.90;96.80;;;;;;5030430;28;20437;-70
2023/06/12 00:10:46;;;;;;;7.00;6.10;;;18.90;97.00;;;;;;5029272;28;20428;-70
2023/06/12 00:13:12;;;;;;;6.43;5.83;;;18.80;97.60;;;;;;5027339;28;20425;-70
2023/06/12 00:15:38;;;;;;;6.67;6.10;;;18.80;98.00;;;;;;5031233;28;21057;-70
2023/06/12 00:18:04;;;;;;;5.80;5.30;;;18.70;98.30;;;;;;5030652;28;20476;-70
2023/06/12 00:20:31;;;;;;;6.53;5.93;;;18.60;98.60;;;;;;5029505;28;20789;-70
2023/06/12 00:22:58;;;;;;;6.77;6.17;;;18.50;99.10;;;;;;5029974;28;20410;-70
2023/06/12 00:25:25;;;;;;;6.90;6.20;;;18.50;99.20;;;;;;5030563;28;20414;-70
2023/06/12 00:27:50;;;;;;;6.03;5.53;;;18.50;99.60;;;;;;5035911;28;20455;-70
2023/06/12 00:30:16;;;;;;;6.60;5.90;;;18.40;99.70;;;;;;5050488;28;20420;-70
2023/06/12 00:32:42;;;;;;;6.97;6.40;;;18.40;99.80;;;;;;5049546;28;20176;-70
2023/06/12 00:35:08;;;;;;;7.33;6.30;;;18.30;99.90;;;;;;5050167;28;20187;-70
2023/06/12 00:37:34;;;;;;;5.57;5.10;;;18.30;99.90;;;;;;5050228;28;20197;-70
2023/06/12 00:40:00;;;;;;;6.80;6.20;;;18.20;99.90;;;;;;5050079;28;20515;-70
2023/06/12 00:42:55;;;;;;;6.50;5.90;;;18.20;99.90;;;;;;5041950;28;20496;-70
2023/06/12 00:45:22;;;;;;;6.20;5.70;;;18.30;99.90;;;;;;5025289;28;20698;-70
2023/06/12 00:47:57;;;;;;;8.37;6.23;;;18.30;99.90;;;;;;5028936;28;20945;-70
2023/06/12 00:50:26;;;;;;;5.83;5.30;;;18.30;99.90;;;;;;5030258;28;21075;-70
2023/06/12 00:52:52;;;;;;;6.13;5.60;;;18.20;99.90;;;;;;5028048;28;20412;-70
2023/06/12 00:55:19;;;;;;;6.40;5.80;;;18.20;99.90;;;;;;5029638;28;20418;-70
2023/06/12 00:57:46;;;;;;;6.63;6.03;;;18.20;99.90;;;;;;5029882;28;20437;-71
2023/06/12 01:00:14;;;;;;;6.70;6.10;;;18.20;99.90;;;;;;5030042;28;20419;-70
2023/06/12 01:02:44;;;;;;;7.27;6.57;;;18.20;99.90;;;;;;5028019;28;20911;-70
2023/06/12 01:05:13;;;;;;;6.13;5.63;;;18.20;99.90;;;;;;5029605;28;20436;-70
2023/06/12 01:08:03;;;;;;;6.20;5.70;;;18.20;99.90;;;;;;5028441;28;20448;-70
2023/06/12 01:10:41;;;;;;;6.90;6.30;;;18.10;99.90;;;;;;5028081;28;20507;-70
2023/06/12 01:13:11;;;;;;;6.17;5.60;;;18.00;99.90;;;;;;5027354;28;20409;-70
2023/06/12 01:15:37;;;;;;;6.40;5.80;;;18.00;99.90;;;;;;5029842;28;20417;-70
2023/06/12 01:18:03;;;;;;;6.53;5.93;;;17.90;99.90;;;;;;5029562;28;20483;-70
2023/06/12 01:20:30;;;;;;;6.20;5.67;;;17.90;99.90;;;;;;5029496;28;20420;-70
2023/06/12 01:23:08;;;;;;;6.60;6.00;;;17.90;99.90;;;;;;5028724;28;20416;-70
2023/06/12 01:25:52;;;;;;;7.37;6.50;;;17.90;99.90;;;;;;5029294;28;20417;-70
2023/06/12 01:28:43;;;;;;;7.20;6.50;;;18.00;99.90;;;;;;5029178;28;20520;-70
2023/06/12 01:31:23;;;;;;;11.23;6.00;;;18.10;99.90;;;;;;5019152;28;20435;-70
2023/06/12 01:34:09;;;;;;;6.13;5.30;;;18.20;99.40;;;;;;5028916;28;20428;-70
2023/06/12 01:36:57;;;;;;;7.07;6.47;;;18.20;99.50;;;;;;5029454;28;20413;-70
2023/06/12 01:39:26;;;;;;;6.97;6.37;;;18.20;99.90;;;;;;5027890;28;21201;-70
2023/06/12 01:41:53;;;;;;;7.07;6.40;;;18.20;99.90;;;;;;5028468;28;20462;-70
2023/06/12 01:44:21;;;;;;;8.53;6.27;;;18.20;99.90;;;;;;5028622;28;20412;-70
2023/06/12 01:46:47;;;;;;;6.40;5.80;;;18.20;99.90;;;;;;5029161;28;20413;-70
2023/06/12 01:49:13;;;;;;;5.77;5.27;;;18.10;99.90;;;;;;5028683;28;20429;-70
2023/06/12 01:51:38;;;;;;;9.70;6.20;;;18.20;99.90;;;;;;5028500;28;20190;-70
2023/06/12 01:54:04;;;;;;;6.27;5.77;;;18.20;99.90;;;;;;5028521;28;20190;-70
2023/06/12 01:56:30;;;;;;;7.17;5.90;;;18.10;99.90;;;;;;5028860;28;20190;-70
2023/06/12 01:58:55;;;;;;;6.30;5.73;;;18.10;99.90;;;;;;5028917;28;20209;-70
2023/06/12 02:01:23;;;;;;;6.80;6.20;;;18.10;99.90;;;;;;5028316;28;20217;-70
2023/06/12 02:03:49;;;;;;;7.30;5.60;;;18.10;99.90;;;;;;5028843;28;20182;-71
2023/06/12 02:06:16;;;;;;;8.17;5.87;;;18.10;99.90;;;;;;5025772;28;20449;-70
2023/06/12 02:08:43;;;;;;;6.67;6.07;;;18.10;99.90;;;;;;5025794;28;20660;-70
2023/06/12 02:11:09;;;;;;;6.07;5.57;;;18.00;99.90;;;;;;5022362;28;20448;-71
2023/06/12 02:13:35;;;;;;;6.07;5.50;;;18.00;99.90;;;;;;5026165;28;20436;-71
2023/06/12 02:16:03;;;;;;;6.03;5.53;;;18.00;99.90;;;;;;5028448;28;20922;-71
2023/06/12 02:18:30;;;;;;;6.73;6.17;;;18.00;99.90;;;;;;5028284;28;20444;-71
2023/06/12 02:20:56;;;;;;;6.63;6.03;;;18.00;99.90;;;;;;5027248;28;20452;-71
2023/06/12 02:23:21;;;;;;;5.97;5.37;;;18.00;99.90;;;;;;5027247;28;20421;-71
2023/06/12 02:25:47;;;;;;;6.47;5.87;;;18.00;99.90;;;;;;5028411;28;20414;-71
2023/06/12 02:28:13;;;;;;;7.20;6.50;;;17.90;99.90;;;;;;5030454;28;20210;-71
2023/06/12 02:30:38;;;;;;;6.43;5.83;;;17.90;99.90;;;;;;5028536;28;20544;-71
2023/06/12 02:33:09;;;;;;;7.23;6.60;;;17.90;99.90;;;;;;5026048;28;20190;-71
2023/06/12 02:35:36;;;;;;;6.23;5.70;;;17.80;99.90;;;;;;5028332;28;20193;-71
2023/06/12 02:38:02;;;;;;;6.97;6.37;;;17.80;99.90;;;;;;5028402;28;20611;-70
2023/06/12 02:40:27;;;;;;;6.97;6.37;;;17.70;99.90;;;;;;5026707;28;20557;-70
2023/06/12 02:42:53;;;;;;;8.67;5.90;;;17.70;99.90;;;;;;5027478;28;20179;-70
2023/06/12 02:45:23;;;;;;;6.30;5.70;;;17.60;99.90;;;;;;5027913;28;20189;-70
2023/06/12 02:47:49;;;;;;;6.90;6.30;;;17.70;99.90;;;;;;5028274;28;20571;-70
2023/06/12 02:50:15;;;;;;;7.27;6.60;;;17.60;99.90;;;;;;5028184;28;20424;-70
2023/06/12 02:52:40;;;;;;;6.37;5.77;;;17.60;99.90;;;;;;5027581;28;20659;-70
2023/06/12 02:55:07;;;;;;;6.50;5.90;;;17.50;99.90;;;;;;5027895;28;20528;-70
2023/06/12 02:57:33;;;;;;;7.00;6.40;;;17.40;99.90;;;;;;5028062;28;20198;-70
2023/06/12 02:59:59;;;;;;;7.10;6.50;;;17.30;99.90;;;;;;5028215;28;20424;-70
2023/06/12 03:02:25;;;;;;;7.00;6.37;;;17.20;99.90;;;;;;5029061;28;20465;-70
2023/06/12 03:04:52;;;;;;;8.00;7.20;;;17.20;99.90;;;;;;5023249;28;20198;-70
2023/06/12 03:07:18;;;;;;;7.57;6.87;;;17.10;99.90;;;;;;5031457;28;20913;-70
2023/06/12 03:09:44;;;;;;;6.83;6.10;;;17.00;99.90;;;;;;5022940;28;20418;-70
2023/06/12 03:12:11;;;;;;;7.00;6.37;;;17.00;99.90;;;;;;5028755;28;20855;-70
2023/06/12 03:14:38;;;;;;;7.30;6.33;;;16.90;99.90;;;;;;5031229;28;20433;-70
2023/06/12 03:17:05;;;;;;;7.63;6.93;;;16.90;99.90;;;;;;5031684;28;20425;-70
2023/06/12 03:19:31;;;;;;;8.20;6.63;;;16.80;99.90;;;;;;5031390;28;20437;-70
2023/06/12 03:21:57;;;;;;;7.30;6.70;;;16.80;99.90;;;;;;5030734;28;20461;-70
2023/06/12 03:24:26;;;;;;;7.57;6.87;;;16.70;99.90;;;;;;5030773;28;20498;-70
2023/06/12 03:26:53;;;;;;;7.60;6.90;;;16.70;99.90;;;;;;5030147;28;20849;-70
2023/06/12 03:29:18;;;;;;;7.50;6.80;;;16.70;99.90;;;;;;5033575;28;20438;-70
2023/06/12 03:31:45;;;;;;;8.10;7.40;;;16.70;99.90;;;;;;5030711;28;20993;-71
2023/06/12 03:34:11;;;;;;;7.13;6.43;;;16.60;99.90;;;;;;5031072;28;20261;-70
2023/06/12 03:36:38;;;;;;;7.77;7.13;;;16.60;99.90;;;;;;5031152;28;21213;-70
2023/06/12 03:39:05;;;;;;;7.67;6.97;;;16.70;99.90;;;;;;5031090;28;20523;-70
2023/06/12 03:41:33;;;;;;;7.10;6.40;;;16.70;99.90;;;;;;5030191;28;20575;-70
2023/06/12 03:43:59;;;;;;;7.47;6.80;;;16.70;99.90;;;;;;5030694;28;20876;-70
2023/06/12 03:46:25;;;;;;;7.20;6.50;;;16.60;99.90;;;;;;5031096;28;20417;-70
2023/06/12 03:48:51;;;;;;;7.33;6.63;;;16.60;99.90;;;;;;5022931;28;20812;-70
2023/06/12 03:51:17;;;;;;;6.40;5.83;;;16.70;99.90;;;;;;5030440;28;20421;-70
2023/06/12 03:53:43;;;;;;;7.10;6.50;;;16.70;99.90;;;;;;5030380;28;20285;-70
2023/06/12 03:56:08;;;;;;;6.90;6.13;;;16.70;99.90;;;;;;5030801;28;20187;-70
2023/06/12 03:58:34;;;;;;;8.17;7.40;;;16.60;99.90;;;;;;5030726;28;20285;-70
2023/06/12 04:01:00;;;;;;;7.80;7.10;;;16.60;99.90;;;;;;5029512;28;20294;-70
2023/06/12 04:03:26;;;;;;;8.00;7.20;;;16.60;99.90;;;;;;5029807;28;20516;-70
2023/06/12 04:05:52;;;;;;;8.10;6.90;;;16.70;99.90;;;;;;5030759;28;20201;-70
2023/06/12 04:08:18;;;;;;;7.60;6.90;;;16.70;99.90;;;;;;5030552;28;20202;-70
2023/06/12 04:10:44;;;;;;;8.20;7.50;;;16.80;99.90;;;;;;5025680;28;20434;-70
2023/06/12 04:13:11;;;;;;;8.73;7.27;;;16.90;99.90;;;;;;5027769;28;20421;-70
2023/06/12 04:15:38;;;;;;;7.90;7.20;;;16.90;99.90;;;;;;5030760;28;20555;-71
2023/06/12 04:18:05;;;;;;;9.27;7.47;;;16.90;99.90;;;;;;5028568;28;20875;-70
2023/06/12 04:20:32;;;;;;;7.03;6.40;;;16.90;99.90;;;;;;5025729;28;20432;-70
2023/06/12 04:22:58;;;;;;;6.80;6.20;;;16.90;99.90;;;;;;5029473;28;20426;-70
2023/06/12 04:25:26;;;;;;;9.30;6.93;;;16.90;99.90;;;;;;5030264;28;20425;-70
2023/06/12 04:27:52;;;;;;;9.47;7.57;;;16.90;99.90;;;;;;5030474;28;20980;-70
2023/06/12 04:30:21;;;;;;;8.03;7.23;;;16.90;99.90;;;;;;5030319;28;21274;-70
2023/06/12 04:32:47;;;;;;;8.57;7.03;;;17.00;99.90;;;;;;5028118;28;20763;-70
2023/06/12 04:35:17;;;;;;;8.70;7.57;;;17.10;99.90;;;;;;5030008;28;20460;-70
2023/06/12 04:37:43;;;;;;;8.30;7.50;;;17.10;99.90;;;;;;5030252;28;20464;-70
2023/06/12 04:40:11;;;;;;;8.57;7.57;;;17.20;99.90;;;;;;5030390;28;20580;-71
2023/06/12 04:42:37;;;;;;;8.00;7.07;;;17.20;99.90;;;;;;5029567;28;20206;-70
2023/06/12 04:45:04;;;;;;;7.77;7.03;;;17.30;99.90;;;;;;5029887;28;20433;-70
2023/06/12 04:47:30;;;;;;;10.13;7.93;;;17.30;99.90;;;;;;5030160;28;20417;-70
2023/06/12 04:49:57;;;;;;;8.73;7.83;;;17.40;99.90;;;;;;5029216;28;20429;-70
2023/06/12 04:52:24;;;;;;;8.60;7.90;;;17.50;99.90;;;;;;5029283;28;20428;-70
2023/06/12 04:54:52;;;;;;;8.53;7.50;;;17.60;99.90;;;;;;5028287;28;20437;-70
2023/06/12 04:57:18;;;;;;;10.63;8.27;;;17.70;99.90;;;;;;5029728;28;20421;-70
2023/06/12 04:59:45;;;;;;;9.80;8.53;;;17.80;99.90;;;;;;5029983;28;20786;-70
2023/06/12 05:02:13;;;;;;;9.17;8.37;;;18.00;99.90;;;;;;5029202;28;20550;-70
2023/06/12 05:04:41;;;;;;;8.27;7.47;;;18.10;99.90;;;;;;5027822;28;20542;-70
2023/06/12 05:07:14;;;;;;;8.33;7.63;;;18.10;99.90;;;;;;5029492;28;20456;-70
2023/06/12 05:09:46;;;;;;;9.20;8.30;;;18.10;99.90;;;;;;5029823;28;20413;-70
2023/06/12 05:12:12;;;;;;;9.27;7.77;;;18.30;99.90;;;;;;5027764;28;20436;-70
2023/06/12 05:14:43;;;;;;;8.50;7.80;;;18.40;99.90;;;;;;5028487;28;20945;-70
2023/06/12 05:17:09;;;;;;;8.57;7.77;;;18.60;99.90;;;;;;5029391;28;20454;-71
2023/06/12 05:19:38;;;;;;;11.43;8.33;;;18.70;99.90;;;;;;5027967;28;20452;-71
2023/06/12 05:22:04;;;;;;;10.70;7.87;;;18.80;99.90;;;;;;5026069;28;20472;-71
2023/06/12 05:24:30;;;;;;;8.67;7.70;;;18.90;99.90;;;;;;5028347;28;21009;-70
2023/06/12 05:26:55;;;;;;;11.20;7.50;;;18.90;99.90;;;;;;5029487;28;20420;-71
2023/06/12 05:29:21;;;;;;;8.60;7.80;;;19.00;99.90;;;;;;5029234;28;20203;-71
2023/06/12 05:31:47;;;;;;;8.77;7.83;;;19.10;99.90;;;;;;5027939;28;20567;-71
2023/06/12 05:34:12;;;;;;;9.73;7.60;;;19.20;99.90;;;;;;5027739;28;20272;-71
2023/06/12 05:36:38;;;;;;;10.13;8.20;;;19.30;99.90;;;;;;5029301;28;20182;-71
2023/06/12 05:39:04;;;;;;;8.20;7.50;;;19.40;99.90;;;;;;5029188;28;20198;-71
2023/06/12 05:41:30;;;;;;;10.30;9.10;;;19.50;99.90;;;;;;5028391;28;20650;-71
2023/06/12 05:43:56;;;;;;;9.77;8.60;;;19.60;99.90;;;;;;5028760;28;20496;-71
2023/06/12 05:46:22;;;;;;;10.60;8.53;;;19.60;99.90;;;;;;5029159;28;20993;-71
2023/06/12 05:48:49;;;;;;;11.27;8.20;;;19.60;99.90;;;;;;5028942;28;20698;-71
2023/06/12 05:51:15;;;;;;;15.83;8.17;;;19.70;99.90;;;;;;5028674;28;20534;-71
2023/06/12 05:53:44;;;;;;;8.73;7.93;;;19.90;99.90;;;;;;5028701;28;20428;-71
2023/06/12 05:56:13;;;;;;;9.43;8.53;;;20.00;99.90;;;;;;5027896;28;20432;-71
2023/06/12 05:58:40;;;;;;;9.90;8.20;;;20.10;99.90;;;;;;5026104;28;20862;-71
2023/06/12 06:01:09;;;;;;;13.00;8.67;;;20.20;99.90;;;;;;5026707;28;20530;-72
2023/06/12 06:03:35;;;;;;;10.70;8.10;;;20.30;99.90;;;;;;5027529;28;20512;-70
2023/06/12 06:06:00;;;;;;;12.10;8.20;;;20.40;99.90;;;;;;5025679;28;20452;-70
2023/06/12 06:08:26;;;;;;;12.20;8.40;;;20.50;99.90;;;;;;5028700;28;20433;-70
2023/06/12 06:10:52;;;;;;;8.70;7.80;;;20.50;99.90;;;;;;5029065;28;20174;-70
2023/06/12 06:13:17;;;;;;;8.90;8.00;;;20.60;99.90;;;;;;5027906;28;20189;-70
2023/06/12 06:15:44;;;;;;;8.63;7.53;;;20.70;99.90;;;;;;5028502;28;20258;-70
2023/06/12 06:18:09;;;;;;;8.73;7.93;;;20.80;99.90;;;;;;5027748;28;20202;-70
2023/06/12 06:20:35;;;;;;;10.67;7.93;;;20.90;99.90;;;;;;5025455;28;20834;-70
2023/06/12 06:23:01;;;;;;;7.93;7.23;;;21.10;99.90;;;;;;5027604;28;20189;-70
2023/06/12 06:25:28;;;;;;;10.63;8.47;;;21.10;99.90;;;;;;5026185;28;20183;-70
2023/06/12 06:27:54;;;;;;;10.90;8.60;;;21.20;99.90;;;;;;5023203;28;20271;-70
2023/06/12 06:30:19;;;;;;;9.40;8.17;;;21.40;99.90;;;;;;5028369;28;20836;-70
2023/06/12 06:32:46;;;;;;;12.80;7.67;;;21.50;98.70;;;;;;5026520;28;20189;-70
2023/06/12 06:35:12;;;;;;;9.07;7.67;;;21.60;98.80;;;;;;5020406;28;20816;-70
2023/06/12 06:37:38;;;;;;;8.50;7.47;;;21.70;98.80;;;;;;5021277;28;20449;-71
2023/06/12 06:40:05;;;;;;;12.23;7.90;;;21.80;98.60;;;;;;5023320;28;20558;-71
2023/06/12 06:42:31;;;;;;;10.50;8.00;;;21.90;97.60;;;;;;5020946;28;20202;-71
2023/06/12 06:44:57;;;;;;;11.67;8.33;;;22.00;98.10;;;;;;5021290;28;20409;-71
2023/06/12 06:47:22;;;;;;;8.30;6.73;;;22.00;97.60;;;;;;5018121;28;20183;-71
2023/06/12 06:49:49;;;;;;;9.30;7.87;;;22.10;97.60;;;;;;5012672;28;20253;-71
2023/06/12 06:52:17;;;;;;;9.10;7.50;;;22.10;97.60;;;;;;5012124;28;20193;-71
2023/06/12 06:54:43;;;;;;;8.27;7.43;;;22.10;97.70;;;;;;5011282;28;21001;-71
2023/06/12 06:57:10;;;;;;;6.90;6.30;;;22.10;97.70;;;;;;5012598;28;20421;-71
2023/06/12 06:59:37;;;;;;;9.87;7.40;;;22.20;98.40;;;;;;5012521;28;20198;-71
2023/06/12 07:02:02;;;;;;;10.27;7.43;;;22.30;98.70;;;;;;5011539;28;20561;-71
2023/06/12 07:04:28;;;;;;;7.80;7.00;;;22.40;98.40;;;;;;5011863;28;20513;-71
2023/06/12 07:06:54;;;;;;;10.23;7.37;;;22.60;98.00;;;;;;5012415;28;20633;-71
2023/06/12 07:09:21;;;;;;;8.63;7.63;;;22.70;97.40;;;;;;5027637;28;20643;-72
2023/06/12 07:11:46;;;;;;;9.13;7.70;;;22.80;97.10;;;;;;5017874;28;20215;-70
2023/06/12 07:14:13;;;;;;;8.00;7.30;;;22.90;97.50;;;;;;5017374;28;20504;-70
2023/06/12 07:16:39;;;;;;;10.53;7.57;;;23.10;96.40;;;;;;5020175;28;20484;-70
2023/06/12 07:19:04;;;;;;;8.77;7.93;;;23.20;95.90;;;;;;5022024;28;20217;-71
2023/06/12 07:21:30;;;;;;;7.87;7.10;;;23.30;96.50;;;;;;5031282;28;20226;-70
2023/06/12 07:23:56;;;;;;;8.40;7.60;;;23.40;95.00;;;;;;5031429;28;20648;-70
2023/06/12 07:26:23;;;;;;;7.90;7.17;;;23.50;95.30;;;;;;5031950;28;20193;-70
2023/06/12 07:28:48;;;;;;;10.17;8.13;;;23.60;95.00;;;;;;5043442;28;20197;-70
2023/06/12 07:31:14;;;;;;;8.27;7.60;;;23.70;94.90;;;;;;5051409;28;20477;-70
2023/06/12 07:33:41;;;;;;;8.73;7.67;;;23.80;95.00;;;;;;5050977;28;20360;-70
2023/06/12 07:36:07;;;;;;;8.70;7.80;;;23.80;94.40;;;;;;5051467;28;20655;-70
2023/06/12 07:38:33;;;;;;;9.27;7.07;;;23.80;94.20;;;;;;5051457;28;20493;-70
2023/06/12 07:40:58;;;;;;;7.60;6.83;;;23.80;94.60;;;;;;5051563;28;20456;-70
2023/06/12 07:43:24;;;;;;;8.27;7.57;;;23.80;94.20;;;;;;5050358;28;20182;-70
2023/06/12 07:45:50;;;;;;;15.13;8.40;;;23.90;94.50;;;;;;5051340;28;20178;-70
2023/06/12 07:48:15;;;;;;;8.90;7.77;;;24.00;95.00;;;;;;5050433;28;20202;-70
2023/06/12 07:50:42;;;;;;;8.00;7.30;;;24.10;93.70;;;;;;5048515;28;20593;-70
2023/06/12 07:53:08;;;;;;;9.83;7.53;;;24.10;92.90;;;;;;5010537;28;20202;-70
2023/06/12 07:55:35;;;;;;;7.70;7.00;;;24.20;92.90;;;;;;5010986;28;20410;-70
2023/06/12 07:58:01;;;;;;;10.03;7.47;;;24.20;93.20;;;;;;5011443;28;21001;-70
2023/06/12 08:00:27;;;;;;;8.57;7.77;;;24.20;93.20;;;;;;5014039;28;20414;-70
2023/06/12 08:02:57;;;;;;;7.80;7.07;;;24.10;92.50;;;;;;5030380;28;20796;-70
2023/06/12 08:05:26;;;;;;;8.03;7.33;;;24.10;92.50;;;;;;5023213;28;20206;-70
2023/06/12 08:07:52;;;;;;;10.73;7.93;;;24.10;91.80;;;;;;5023094;28;20440;-70
2023/06/12 08:10:18;;;;;;;8.20;7.40;;;24.10;91.80;;;;;;5031301;28;20417;-70
2023/06/12 08:12:43;;;;;;;10.07;7.87;;;24.10;91.20;;;;;;5022776;28;20551;-70
2023/06/12 08:15:09;;;;;;;8.80;8.00;;;24.10;92.20;;;;;;5030880;28;20213;-70
2023/06/12 08:17:41;;;;;;;8.10;6.97;;;24.00;91.60;;;;;;5022754;28;20365;-70
2023/06/12 08:20:09;;;;;;;8.33;7.63;;;24.10;92.40;;;;;;5024317;28;20810;-70
2023/06/12 08:22:36;;;;;;;8.87;7.97;;;24.10;93.00;;;;;;5023194;28;20477;-70
2023/06/12 08:25:07;;;;;;;9.13;7.40;;;24.10;92.10;;;;;;5019918;28;20483;-71
2023/06/12 08:27:33;;;;;;;8.23;7.50;;;24.10;91.10;;;;;;5028665;28;20523;-71
2023/06/12 08:30:00;;;;;;;10.13;7.50;;;24.20;92.20;;;;;;5028247;28;20764;-71
2023/06/12 08:32:26;;;;;;;8.40;7.60;;;24.20;91.60;;;;;;5029168;28;20421;-71
2023/06/12 08:34:53;;;;;;;8.10;7.30;;;24.30;92.00;;;;;;5029587;28;20886;-71
2023/06/12 08:37:22;;;;;;;8.13;7.33;;;24.40;91.60;;;;;;5029494;28;20417;-71
2023/06/12 08:39:47;;;;;;;7.93;7.30;;;24.50;92.10;;;;;;5030515;28;20463;-71
2023/06/12 08:42:17;;;;;;;8.80;7.97;;;24.50;91.30;;;;;;5029756;28;20468;-70
2023/06/12 08:44:47;;;;;;;8.80;7.90;;;24.70;90.80;;;;;;5030029;28;20182;-70
2023/06/12 08:47:14;;;;;;;7.83;7.23;;;24.70;90.90;;;;;;5030253;28;20405;-70
2023/06/12 08:49:40;;;;;;;8.33;7.63;;;24.80;91.40;;;;;;5029505;28;20417;-70
2023/06/12 08:52:10;;;;;;;7.80;7.13;;;24.80;90.60;;;;;;5029506;28;20425;-70
2023/06/12 08:54:40;;;;;;;11.47;7.30;;;24.80;90.90;;;;;;5029682;28;20492;-70
2023/06/12 08:57:08;;;;;;;9.20;8.47;;;24.80;90.40;;;;;;5029992;28;20421;-70
2023/06/12 08:59:34;;;;;;;12.17;8.13;;;24.80;91.70;;;;;;5028949;28;20487;-69
2023/06/12 09:02:01;;;;;;;7.50;6.90;;;24.80;90.60;;;;;;5029101;28;20461;-69
2023/06/12 09:04:49;;;;;;;9.27;8.40;;;24.80;90.30;;;;;;5029557;28;20903;-71
2023/06/12 09:07:19;;;;;;;16.53;9.87;;;25.00;90.40;;;;;;5029968;28;20925;-70
2023/06/12 09:09:46;;;;;;;8.30;7.60;;;25.00;91.40;;;;;;5010140;28;20422;-70
2023/06/12 09:12:14;;;;;;;8.90;8.00;;;25.20;90.90;;;;;;5008396;28;20449;-71
2023/06/12 09:14:44;;;;;;;7.53;6.83;;;25.30;90.90;;;;;;5009666;28;20422;-71
2023/06/12 09:17:11;;;;;;;9.07;8.37;;;25.50;90.50;;;;;;5009877;28;20410;-70
2023/06/12 09:19:40;;;;;;;8.73;7.83;;;25.60;90.00;;;;;;5009928;28;20476;-70
2023/06/12 09:22:06;;;;;;;8.57;7.77;;;25.70;88.30;;;;;;5009122;28;20549;-71
2023/06/12 09:24:32;;;;;;;8.87;8.07;;;25.80;88.80;;;;;;5009709;28;21084;-71
2023/06/12 09:27:00;;;;;;;9.50;8.60;;;25.90;89.50;;;;;;5008002;28;20402;-71
2023/06/12 09:29:30;;;;;;;8.90;8.20;;;26.00;88.00;;;;;;5046594;28;20198;-71
2023/06/12 09:32:02;;;;;;;9.90;8.90;;;26.10;88.40;;;;;;5048820;28;20921;-71
2023/06/12 09:34:30;;;;;;;9.47;8.63;;;26.20;88.10;;;;;;5049155;28;20819;-71
2023/06/12 09:36:56;;;;;;;13.23;8.50;;;26.30;86.70;;;;;;5049084;28;20412;-71
2023/06/12 09:39:28;;;;;;;8.70;7.80;;;26.40;88.60;;;;;;5049118;28;20460;-71
2023/06/12 09:41:55;;;;;;;8.50;7.80;;;26.50;87.40;;;;;;5048217;28;20237;-70
2023/06/12 09:44:28;;;;;;;9.00;8.20;;;26.60;90.00;;;;;;5048833;28;20705;-71
2023/06/12 09:47:06;;;;;;;8.83;8.13;;;26.70;88.10;;;;;;5048957;28;20517;-71
2023/06/12 09:49:34;;;;;;;8.87;8.17;;;26.70;86.60;;;;;;5049131;28;20431;-71
2023/06/12 09:52:05;;;;;;;10.93;9.63;;;26.80;83.10;;;;;;5048174;28;20421;-71
2023/06/12 09:54:32;;;;;;;9.20;8.30;;;26.90;85.60;;;;;;5048762;28;20412;-71
2023/06/12 09:57:00;;;;;;;9.47;8.47;;;27.00;84.90;;;;;;5048623;28;20417;-71
2023/06/12 09:59:32;;;;;;;10.20;8.33;;;27.10;86.00;;;;;;5048798;28;20432;-70
2023/06/12 10:02:15;;;;;;;8.30;7.60;;;27.20;84.50;;;;;;5048160;28;20559;-71
2023/06/12 10:04:47;;;;;;;8.87;8.17;;;27.10;81.00;;;;;;5048364;28;20421;-71
2023/06/12 10:07:21;;;;;;;9.00;8.20;;;27.10;82.60;;;;;;5048815;28;20405;-71
2023/06/12 10:09:47;;;;;;;9.60;8.60;;;27.20;82.40;;;;;;5009211;28;20990;-71
2023/06/12 10:12:14;;;;;;;9.50;8.70;;;27.30;81.30;;;;;;5008142;28;20410;-71
2023/06/12 10:14:40;;;;;;;9.23;8.43;;;27.40;82.80;;;;;;5008713;28;20422;-71
2023/06/12 10:17:08;;;;;;;10.00;8.60;;;27.50;83.20;;;;;;5009069;28;20420;-71
2023/06/12 10:19:35;;;;;;;9.07;8.27;;;27.60;82.70;;;;;;5009091;28;20442;-70
2023/06/12 10:22:03;;;;;;;8.20;7.60;;;27.70;82.70;;;;;;5008293;28;20465;-71
2023/06/12 10:24:29;;;;;;;8.97;8.17;;;27.70;78.90;;;;;;5007416;28;20514;-71
2023/06/12 10:26:56;;;;;;;8.57;7.73;;;27.50;78.00;;;;;;5007386;28;20417;-71
2023/06/12 10:29:33;;;;;;;10.40;8.83;;;27.30;76.70;;;;;;5044863;28;20447;-71
2023/06/12 10:32:14;;;;;;;13.43;8.20;;;27.10;77.20;;;;;;5048048;28;20408;-71
2023/06/12 10:34:42;;;;;;;8.20;7.60;;;26.90;77.60;;;;;;5048092;28;20829;-71
2023/06/12 10:37:42;;;;;;;9.30;8.40;;;26.90;78.30;;;;;;5030368;28;20441;-71
2023/06/12 10:40:18;;;;;;;8.80;8.00;;;27.10;76.40;;;;;;5018286;28;20490;-71
2023/06/12 10:42:53;;;;;;;8.37;7.70;;;27.20;77.30;;;;;;5027346;28;20957;-70
2023/06/12 10:45:26;;;;;;;8.90;8.10;;;27.30;79.80;;;;;;5027944;28;20491;-71
2023/06/12 10:48:07;;;;;;;11.70;7.60;;;27.40;81.40;;;;;;5028190;28;20946;-71
2023/06/12 10:50:35;;;;;;;8.73;7.90;;;27.40;77.60;;;;;;5028142;28;20421;-71
2023/06/12 10:53:07;;;;;;;8.63;7.93;;;27.50;76.30;;;;;;5020446;28;20987;-71
2023/06/12 10:55:36;;;;;;;8.30;7.60;;;27.50;76.10;;;;;;5027979;28;20953;-71
2023/06/12 10:58:04;;;;;;;9.00;8.10;;;27.40;71.80;;;;;;5027985;28;20441;-71
2023/06/12 11:00:38;;;;;;;7.97;7.27;;;27.30;72.10;;;;;;5027998;28;20471;-71
2023/06/12 11:03:12;;;;;;;8.47;7.67;;;27.40;71.50;;;;;;5027089;28;20516;-71
2023/06/12 11:05:39;;;;;;;8.77;8.07;;;27.40;72.80;;;;;;5027923;28;20448;-70
2023/06/12 11:08:09;;;;;;;8.80;8.10;;;27.50;73.20;;;;;;5026790;28;20468;-71
2023/06/12 11:10:35;;;;;;;8.10;7.30;;;27.60;68.60;;;;;;5027749;28;21042;-71
2023/06/12 11:13:04;;;;;;;8.37;7.70;;;27.80;70.10;;;;;;5026194;28;20417;-71
2023/06/12 11:15:44;;;;;;;8.73;8.03;;;27.80;73.00;;;;;;5027792;28;21091;-70
2023/06/12 11:18:11;;;;;;;8.70;8.00;;;27.80;78.00;;;;;;5028113;28;21315;-71
2023/06/12 11:20:37;;;;;;;9.53;8.83;;;27.90;72.80;;;;;;5027807;28;20483;-70
2023/06/12 11:23:03;;;;;;;9.43;8.60;;;28.10;73.80;;;;;;5028179;28;20464;-70
2023/06/12 11:25:43;;;;;;;9.00;8.23;;;28.10;71.30;;;;;;5031140;28;20185;-70
2023/06/12 11:28:09;;;;;;;9.17;8.30;;;28.30;70.80;;;;;;5033610;28;20448;-71
2023/06/12 11:30:35;;;;;;;9.30;8.50;;;28.30;74.40;;;;;;5031600;28;20443;-71
2023/06/12 11:33:13;;;;;;;9.33;8.53;;;28.40;73.30;;;;;;5030601;28;20425;-71
2023/06/12 11:35:44;;;;;;;9.80;8.90;;;28.50;73.70;;;;;;5031339;28;20193;-71
2023/06/12 11:38:15;;;;;;;8.83;8.00;;;28.60;71.20;;;;;;5031056;28;20433;-71
2023/06/12 11:40:41;;;;;;;8.27;7.67;;;28.50;69.90;;;;;;5029704;28;20466;-71
2023/06/12 11:43:07;;;;;;;10.20;8.43;;;28.50;69.30;;;;;;5029740;28;20438;-71
2023/06/12 11:45:33;;;;;;;8.50;7.80;;;28.60;68.20;;;;;;5029109;28;20426;-71
2023/06/12 11:48:00;;;;;;;8.53;7.83;;;28.70;68.40;;;;;;5029789;28;20448;-71
2023/06/12 11:50:27;;;;;;;9.27;8.40;;;28.70;68.50;;;;;;5030637;28;20442;-71
2023/06/12 11:52:55;;;;;;;7.90;7.30;;;28.80;66.70;;;;;;5023167;28;20514;-71
2023/06/12 11:55:21;;;;;;;8.73;7.97;;;28.90;63.50;;;;;;5030207;28;20839;-70
2023/06/12 11:57:49;;;;;;;8.43;7.63;;;28.90;66.70;;;;;;5030168;28;21076;-71
2023/06/12 12:00:20;;;;;;;9.63;8.73;;;28.90;65.10;;;;;;5030566;28;20439;-71
2023/06/12 12:02:56;;;;;;;9.20;8.50;;;29.00;62.60;;;;;;5029266;28;20468;-71
2023/06/12 12:05:23;;;;;;;9.43;8.73;;;29.00;61.70;;;;;;5030030;28;20471;-71
2023/06/12 12:07:58;;;;;;;8.47;7.73;;;29.00;64.40;;;;;;5029169;28;20433;-71
2023/06/12 12:10:24;;;;;;;10.03;8.40;;;29.10;64.70;;;;;;5030459;28;20420;-71
2023/06/12 12:12:55;;;;;;;9.67;8.73;;;29.10;60.50;;;;;;5026625;28;20425;-70
2023/06/12 12:15:21;;;;;;;9.00;8.10;;;29.00;60.60;;;;;;5025972;28;20433;-71
2023/06/12 12:17:47;;;;;;;9.30;8.50;;;29.00;63.90;;;;;;5029111;28;20460;-71
2023/06/12 12:20:16;;;;;;;8.83;8.13;;;29.00;64.20;;;;;;5028956;28;20425;-70
2023/06/12 12:22:43;;;;;;;11.00;9.90;;;29.00;63.90;;;;;;5029293;28;20473;-71
2023/06/12 12:25:13;;;;;;;9.93;9.13;;;29.00;59.90;;;;;;5029003;28;20409;-71
2023/06/12 12:27:39;;;;;;;9.33;8.63;;;28.80;57.90;;;;;;5030518;28;20807;-71
2023/06/12 12:30:05;;;;;;;11.50;10.13;;;28.70;58.00;;;;;;5029990;28;20413;-71
2023/06/12 12:32:32;;;;;;;10.57;9.67;;;28.60;59.40;;;;;;5029455;28;20190;-71
2023/06/12 12:34:58;;;;;;;10.67;9.63;;;28.70;61.50;;;;;;5029193;28;20412;-71
2023/06/12 12:37:24;;;;;;;9.70;8.90;;;28.70;62.10;;;;;;5029912;28;20483;-71
2023/06/12 12:39:50;;;;;;;10.50;9.70;;;28.80;60.00;;;;;;5024056;28;20186;-71
2023/06/12 12:42:16;;;;;;;9.60;8.13;;;28.70;59.40;;;;;;5029234;28;20468;-71
2023/06/12 12:44:42;;;;;;;10.10;9.10;;;28.60;58.10;;;;;;5029414;28;20194;-71
2023/06/12 12:47:08;;;;;;;10.57;9.60;;;28.50;59.00;;;;;;5029888;28;20497;-71
2023/06/12 12:49:33;;;;;;;10.03;9.10;;;28.50;59.00;;;;;;5029912;28;20205;-71